createdAt,value
2018-08-30T00:00:08.558Z,0
2018-08-30T00:01:09.938Z,0
2018-08-30T00:02:11.305Z,0
2018-08-30T00:03:12.688Z,0
2018-08-30T00:04:14.051Z,0
2018-08-30T00:05:15.413Z,0
2018-08-30T00:06:16.777Z,0
2018-08-30T00:07:18.148Z,0
2018-08-30T00:08:19.514Z,0
2018-08-30T00:09:20.888Z,0
2018-08-30T00:10:22.256Z,0
2018-08-30T00:11:23.602Z,0
2018-08-30T00:12:24.977Z,0
2018-08-30T00:13:26.341Z,0
2018-08-30T00:14:27.703Z,0
2018-08-30T00:15:29.056Z,0
2018-08-30T00:16:30.488Z,0
2018-08-30T00:17:31.850Z,0
2018-08-30T00:18:33.218Z,0
2018-08-30T00:19:34.583Z,0
2018-08-30T00:20:35.947Z,0
2018-08-30T00:21:37.308Z,0
2018-08-30T00:22:38.671Z,0
2018-08-30T00:23:40.022Z,0
2018-08-30T00:24:41.383Z,0
2018-08-30T00:25:42.742Z,0
2018-08-30T00:26:44.113Z,0
2018-08-30T00:27:45.476Z,0
2018-08-30T00:28:46.833Z,0
2018-08-30T00:29:48.193Z,0
2018-08-30T00:30:49.556Z,0
2018-08-30T00:31:50.940Z,0
2018-08-30T00:32:52.301Z,0
2018-08-30T00:33:53.677Z,0
2018-08-30T00:34:55.029Z,0
2018-08-30T00:35:56.405Z,0
2018-08-30T00:36:57.764Z,0
2018-08-30T00:37:59.125Z,0
2018-08-30T00:39:00.497Z,0
2018-08-30T00:40:01.859Z,0
2018-08-30T00:41:03.218Z,0
2018-08-30T00:42:04.588Z,0
2018-08-30T00:43:05.961Z,0
2018-08-30T00:44:07.322Z,0
2018-08-30T00:45:08.676Z,0
2018-08-30T00:46:10.044Z,0
2018-08-30T00:47:11.407Z,0
2018-08-30T00:48:12.771Z,0
2018-08-30T00:49:14.133Z,0
2018-08-30T00:50:15.499Z,0
2018-08-30T00:51:16.853Z,0
2018-08-30T00:52:18.232Z,0
2018-08-30T00:53:19.591Z,0
2018-08-30T00:54:20.961Z,0
2018-08-30T00:55:22.316Z,0
2018-08-30T00:56:23.686Z,0
2018-08-30T00:57:25.046Z,0
2018-08-30T00:58:26.409Z,0
2018-08-30T00:59:27.762Z,0
2018-08-30T01:00:29.128Z,0
2018-08-30T01:01:30.502Z,0
2018-08-30T01:02:31.854Z,0
2018-08-30T01:03:33.214Z,0
2018-08-30T01:04:34.572Z,0
2018-08-30T01:05:35.966Z,0
2018-08-30T01:06:37.354Z,0
2018-08-30T01:07:38.701Z,0
2018-08-30T01:08:40.071Z,0
2018-08-30T01:09:41.432Z,0
2018-08-30T01:10:42.792Z,0
2018-08-30T01:11:44.156Z,0
2018-08-30T01:12:45.533Z,0
2018-08-30T01:13:46.903Z,0
2018-08-30T01:14:48.278Z,0
2018-08-30T01:15:49.647Z,0
2018-08-30T01:16:51.013Z,0
2018-08-30T01:17:52.388Z,0
2018-08-30T01:18:53.743Z,0
2018-08-30T01:19:55.120Z,0
2018-08-30T01:20:56.478Z,0
2018-08-30T01:21:57.843Z,0
2018-08-30T01:22:59.199Z,0
2018-08-30T01:24:00.573Z,0
2018-08-30T01:25:01.942Z,0
2018-08-30T01:26:03.307Z,0
2018-08-30T01:27:04.659Z,0
2018-08-30T01:28:06.023Z,0
2018-08-30T01:29:07.382Z,0
2018-08-30T01:30:08.751Z,0
2018-08-30T01:31:10.109Z,0
2018-08-30T01:32:11.469Z,0
2018-08-30T01:33:12.840Z,0
2018-08-30T01:34:14.196Z,0
2018-08-30T01:35:15.555Z,0
2018-08-30T01:36:16.916Z,0
2018-08-30T01:37:18.287Z,0
2018-08-30T01:38:19.644Z,0
2018-08-30T01:39:20.999Z,0
2018-08-30T01:40:22.393Z,0
2018-08-30T01:41:23.798Z,0
2018-08-30T01:42:25.249Z,0
2018-08-30T01:43:26.745Z,0
2018-08-30T01:44:28.077Z,0
2018-08-30T01:45:29.446Z,0
2018-08-30T01:46:30.817Z,0
2018-08-30T01:47:32.172Z,0
2018-08-30T01:48:33.527Z,0
2018-08-30T01:49:34.897Z,0
2018-08-30T01:50:36.262Z,0
2018-08-30T01:51:37.633Z,0
2018-08-30T01:52:38.992Z,0
2018-08-30T01:53:40.358Z,0
2018-08-30T01:54:41.719Z,0
2018-08-30T01:55:43.072Z,0
2018-08-30T01:56:44.439Z,0
2018-08-30T01:57:45.804Z,0
2018-08-30T01:58:47.171Z,0
2018-08-30T01:59:48.592Z,0
2018-08-30T02:00:49.959Z,0
2018-08-30T02:01:51.308Z,0
2018-08-30T02:02:52.688Z,0
2018-08-30T02:03:54.042Z,0
2018-08-30T02:04:55.407Z,0
2018-08-30T02:05:56.774Z,0
2018-08-30T02:06:58.139Z,0
2018-08-30T02:07:59.517Z,0
2018-08-30T02:09:00.881Z,0
2018-08-30T02:10:02.242Z,0
2018-08-30T02:11:03.620Z,0
2018-08-30T02:12:04.985Z,0
2018-08-30T02:13:06.350Z,0
2018-08-30T02:14:07.717Z,0
2018-08-30T02:15:09.074Z,0
2018-08-30T02:16:10.428Z,0
2018-08-30T02:17:11.790Z,0
2018-08-30T02:18:13.157Z,0
2018-08-30T02:19:14.645Z,0
2018-08-30T02:20:16.015Z,0
2018-08-30T02:21:17.380Z,0
2018-08-30T02:22:18.752Z,0
2018-08-30T02:23:20.123Z,0
2018-08-30T02:24:21.478Z,0
2018-08-30T02:25:22.836Z,0
2018-08-30T02:26:24.225Z,0
2018-08-30T02:27:25.570Z,0
2018-08-30T02:28:26.943Z,0
2018-08-30T02:29:28.303Z,0
2018-08-30T02:30:29.673Z,0
2018-08-30T02:31:31.021Z,0
2018-08-30T02:32:32.393Z,0
2018-08-30T02:33:33.755Z,0
2018-08-30T02:34:35.161Z,0
2018-08-30T02:35:36.498Z,0
2018-08-30T02:36:37.844Z,0
2018-08-30T02:37:39.210Z,0
2018-08-30T02:38:40.559Z,0
2018-08-30T02:39:41.923Z,0
2018-08-30T02:40:43.329Z,0
2018-08-30T02:41:44.690Z,0
2018-08-30T02:42:46.055Z,0
2018-08-30T02:43:47.418Z,0
2018-08-30T02:44:48.784Z,0
2018-08-30T02:45:50.178Z,0
2018-08-30T02:46:51.529Z,0
2018-08-30T02:47:52.888Z,0
2018-08-30T02:48:54.293Z,0
2018-08-30T02:49:55.670Z,0
2018-08-30T02:50:57.030Z,0
2018-08-30T02:51:58.419Z,0
2018-08-30T02:52:59.778Z,0
2018-08-30T02:54:01.143Z,0
2018-08-30T02:55:02.500Z,0
2018-08-30T02:56:03.861Z,0
2018-08-30T02:57:05.231Z,0
2018-08-30T02:58:06.591Z,0
2018-08-30T02:59:07.955Z,0
2018-08-30T03:00:09.316Z,0
2018-08-30T03:01:10.673Z,0
2018-08-30T03:02:12.036Z,0
2018-08-30T03:03:13.408Z,0
2018-08-30T03:04:14.763Z,0
2018-08-30T03:05:16.125Z,0
2018-08-30T03:06:17.480Z,0
2018-08-30T03:07:18.840Z,0
2018-08-30T03:08:20.216Z,0
2018-08-30T03:09:21.576Z,0
2018-08-30T03:10:22.940Z,0
2018-08-30T03:11:24.306Z,0
2018-08-30T03:12:25.659Z,0
2018-08-30T03:13:27.025Z,0
2018-08-30T03:14:28.386Z,0
2018-08-30T03:15:29.745Z,0
2018-08-30T03:16:31.134Z,0
2018-08-30T03:17:32.495Z,0
2018-08-30T03:18:33.859Z,0
2018-08-30T03:19:35.224Z,0
2018-08-30T03:20:36.583Z,0
2018-08-30T03:21:37.944Z,0
2018-08-30T03:22:39.315Z,0
2018-08-30T03:23:40.665Z,0
2018-08-30T03:24:42.034Z,0
2018-08-30T03:25:43.416Z,0
2018-08-30T03:26:44.775Z,0
2018-08-30T03:27:46.141Z,0
2018-08-30T03:28:48.054Z,0
2018-08-30T03:29:49.413Z,0
2018-08-30T03:30:50.945Z,0
2018-08-30T03:31:52.278Z,0
2018-08-30T03:32:53.644Z,0
2018-08-30T03:33:54.999Z,0
2018-08-30T03:34:56.366Z,0
2018-08-30T03:35:57.714Z,0
2018-08-30T03:36:59.084Z,0
2018-08-30T03:38:00.444Z,0
2018-08-30T03:39:01.799Z,0
2018-08-30T03:40:03.170Z,0
2018-08-30T03:41:04.529Z,0
2018-08-30T03:42:05.881Z,0
2018-08-30T03:43:07.248Z,0
2018-08-30T03:44:08.600Z,0
2018-08-30T03:45:09.968Z,0
2018-08-30T03:46:11.325Z,0
2018-08-30T03:47:12.691Z,0
2018-08-30T03:48:14.054Z,0
2018-08-30T03:49:15.414Z,0
2018-08-30T03:50:16.793Z,0
2018-08-30T03:51:18.151Z,0
2018-08-30T03:52:19.521Z,0
2018-08-30T03:53:20.885Z,0
2018-08-30T03:54:22.236Z,0
2018-08-30T03:55:23.605Z,0
2018-08-30T03:56:24.958Z,0
2018-08-30T03:57:26.330Z,0
2018-08-30T03:58:27.685Z,0
2018-08-30T03:59:29.059Z,0
2018-08-30T04:00:30.414Z,0
2018-08-30T04:01:31.790Z,0
2018-08-30T04:02:33.145Z,0
2018-08-30T04:03:34.505Z,0
2018-08-30T04:04:35.908Z,0
2018-08-30T04:05:37.285Z,0
2018-08-30T04:06:38.658Z,0
2018-08-30T04:07:40.010Z,0
2018-08-30T04:08:41.376Z,0
2018-08-30T04:09:42.740Z,0
2018-08-30T04:10:44.100Z,0
2018-08-30T04:11:45.458Z,0
2018-08-30T04:12:46.815Z,0
2018-08-30T04:13:48.171Z,0
2018-08-30T04:14:49.544Z,0
2018-08-30T04:15:50.901Z,0
2018-08-30T04:16:52.304Z,0
2018-08-30T04:17:53.619Z,0
2018-08-30T04:18:54.990Z,0
2018-08-30T04:19:56.346Z,0
2018-08-30T04:20:57.715Z,0
2018-08-30T04:21:59.140Z,0
2018-08-30T04:23:00.450Z,0
2018-08-30T04:24:01.822Z,0
2018-08-30T04:25:03.184Z,0
2018-08-30T04:26:04.531Z,0
2018-08-30T04:27:05.955Z,0
2018-08-30T04:28:07.265Z,0
2018-08-30T04:29:08.631Z,0
2018-08-30T04:30:09.991Z,0
2018-08-30T04:31:11.351Z,0
2018-08-30T04:32:12.718Z,0
2018-08-30T04:33:14.062Z,0
2018-08-30T04:34:15.432Z,0
2018-08-30T04:35:16.801Z,0
2018-08-30T04:36:18.166Z,0
2018-08-30T04:37:19.536Z,0
2018-08-30T04:38:20.896Z,0
2018-08-30T04:39:22.264Z,0
2018-08-30T04:40:23.634Z,0
2018-08-30T04:41:25.000Z,0
2018-08-30T04:42:26.467Z,0
2018-08-30T04:43:27.744Z,0
2018-08-30T04:44:29.115Z,0
2018-08-30T04:45:30.477Z,0
2018-08-30T04:46:47.225Z,5
2018-08-30T04:47:48.617Z,5
2018-08-30T04:49:17.787Z,5
2018-08-30T04:50:22.176Z,5
2018-08-30T04:51:23.506Z,5
2018-08-30T04:52:24.880Z,5
2018-08-30T04:53:26.257Z,11
2018-08-30T04:54:27.619Z,5
2018-08-30T04:55:28.983Z,5
2018-08-30T04:56:30.364Z,11
2018-08-30T04:57:31.720Z,11
2018-08-30T04:58:33.080Z,5
2018-08-30T04:59:34.446Z,5
2018-08-30T05:00:35.809Z,11
2018-08-30T05:01:37.184Z,11
2018-08-30T05:02:38.535Z,11
2018-08-30T05:03:39.899Z,16
2018-08-30T05:04:41.266Z,16
2018-08-30T05:05:42.635Z,22
2018-08-30T05:06:44.000Z,22
2018-08-30T05:07:45.372Z,22
2018-08-30T05:08:46.740Z,28
2018-08-30T05:09:48.109Z,28
2018-08-30T05:10:49.456Z,28
2018-08-30T05:11:50.820Z,28
2018-08-30T05:12:52.211Z,28
2018-08-30T05:13:53.583Z,28
2018-08-30T05:14:54.940Z,28
2018-08-30T05:15:56.315Z,22
2018-08-30T05:16:57.670Z,22
2018-08-30T05:17:59.036Z,28
2018-08-30T05:19:00.400Z,28
2018-08-30T05:20:01.767Z,28
2018-08-30T05:21:03.127Z,22
2018-08-30T05:22:04.523Z,22
2018-08-30T05:23:05.957Z,28
2018-08-30T05:24:07.257Z,28
2018-08-30T05:25:08.631Z,39
2018-08-30T05:26:10.003Z,50
2018-08-30T05:27:11.369Z,56
2018-08-30T05:28:12.742Z,56
2018-08-30T05:29:14.103Z,56
2018-08-30T05:30:15.472Z,61
2018-08-30T05:31:16.841Z,67
2018-08-30T05:32:18.218Z,67
2018-08-30T05:33:20.172Z,78
2018-08-30T05:34:21.542Z,78
2018-08-30T05:35:22.906Z,90
2018-08-30T05:36:24.260Z,112
2018-08-30T05:37:25.630Z,118
2018-08-30T05:38:27.007Z,129
2018-08-30T05:39:28.369Z,140
2018-08-30T05:40:29.741Z,123
2018-08-30T05:41:31.112Z,123
2018-08-30T05:42:32.503Z,146
2018-08-30T05:43:33.877Z,163
2018-08-30T05:44:35.309Z,174
2018-08-30T05:45:36.620Z,196
2018-08-30T05:46:37.988Z,208
2018-08-30T05:47:39.363Z,202
2018-08-30T05:48:40.731Z,180
2018-08-30T05:49:42.108Z,146
2018-08-30T05:50:43.479Z,140
2018-08-30T05:51:44.895Z,146
2018-08-30T05:52:46.272Z,151
2018-08-30T05:53:47.643Z,168
2018-08-30T05:54:49.019Z,191
2018-08-30T05:55:50.381Z,202
2018-08-30T05:56:51.785Z,213
2018-08-30T05:57:53.126Z,219
2018-08-30T05:58:54.488Z,219
2018-08-30T05:59:55.858Z,236
2018-08-30T06:00:57.222Z,241
2018-08-30T06:01:58.587Z,236
2018-08-30T06:03:00.109Z,258
2018-08-30T06:04:01.452Z,286
2018-08-30T06:05:02.817Z,309
2018-08-30T06:06:04.177Z,331
2018-08-30T06:07:05.584Z,320
2018-08-30T06:08:07.062Z,292
2018-08-30T06:09:08.442Z,298
2018-08-30T06:10:09.812Z,331
2018-08-30T06:11:11.173Z,360
2018-08-30T06:12:12.545Z,371
2018-08-30T06:13:13.990Z,371
2018-08-30T06:14:15.255Z,365
2018-08-30T06:15:16.611Z,360
2018-08-30T06:16:17.998Z,360
2018-08-30T06:17:19.378Z,360
2018-08-30T06:18:20.756Z,371
2018-08-30T06:19:22.133Z,388
2018-08-30T06:20:23.499Z,393
2018-08-30T06:21:24.872Z,393
2018-08-30T06:22:26.258Z,393
2018-08-30T06:23:27.612Z,382
2018-08-30T06:24:28.991Z,365
2018-08-30T06:25:30.361Z,348
2018-08-30T06:26:31.732Z,331
2018-08-30T06:27:33.093Z,331
2018-08-30T06:28:34.463Z,315
2018-08-30T06:29:35.834Z,275
2018-08-30T06:30:37.202Z,241
2018-08-30T06:31:38.583Z,264
2018-08-30T06:32:39.988Z,663
2018-08-30T06:33:41.322Z,286
2018-08-30T06:34:42.692Z,354
2018-08-30T06:35:44.063Z,641
2018-08-30T06:36:45.430Z,911
2018-08-30T06:37:46.809Z,483
2018-08-30T06:38:48.283Z,472
2018-08-30T06:39:49.513Z,495
2018-08-30T06:40:50.913Z,540
2018-08-30T06:41:52.306Z,562
2018-08-30T06:42:53.676Z,579
2018-08-30T06:43:55.056Z,680
2018-08-30T06:44:56.428Z,793
2018-08-30T06:45:57.801Z,1215
2018-08-30T06:46:59.184Z,1237
2018-08-30T06:48:00.551Z,1344
2018-08-30T06:49:01.986Z,838
2018-08-30T06:50:03.296Z,1389
2018-08-30T06:51:04.664Z,1417
2018-08-30T06:52:06.033Z,1485
2018-08-30T06:53:07.412Z,1496
2018-08-30T06:54:08.795Z,1530
2018-08-30T06:55:10.162Z,1569
2018-08-30T06:56:11.540Z,1563
2018-08-30T06:57:12.907Z,1501
2018-08-30T06:58:14.279Z,1490
2018-08-30T06:59:15.657Z,1333
2018-08-30T07:00:17.687Z,1496
2018-08-30T07:01:18.354Z,1485
2018-08-30T07:02:19.734Z,1524
2018-08-30T07:03:21.146Z,1535
2018-08-30T07:04:22.548Z,1530
2018-08-30T07:05:23.864Z,1440
2018-08-30T07:06:25.231Z,1125
2018-08-30T07:07:26.603Z,680
2018-08-30T07:08:27.983Z,652
2018-08-30T07:09:29.381Z,635
2018-08-30T07:10:30.754Z,596
2018-08-30T07:11:32.117Z,590
2018-08-30T07:12:33.493Z,613
2018-08-30T07:13:34.872Z,618
2018-08-30T07:14:36.264Z,613
2018-08-30T07:20:49.681Z,618
2018-08-30T07:21:51.057Z,556
2018-08-30T07:22:52.453Z,551
2018-08-30T07:23:54.389Z,579
2018-08-30T07:24:55.782Z,618
2018-08-30T07:25:57.165Z,658
2018-08-30T07:26:59.061Z,680
2018-08-30T07:28:40.092Z,826
2018-08-30T07:29:41.377Z,770
2018-08-30T07:31:02.854Z,742
2018-08-30T07:32:04.235Z,720
2018-08-30T07:33:05.608Z,703
2018-08-30T07:34:07.034Z,810
2018-08-30T07:35:08.407Z,1833
2018-08-30T07:36:09.688Z,888
2018-08-30T07:37:11.058Z,1192
2018-08-30T07:38:12.449Z,590
2018-08-30T07:39:13.798Z,506
2018-08-30T07:40:15.166Z,433
2018-08-30T07:41:16.564Z,376
2018-08-30T07:42:17.937Z,348
2018-08-30T07:43:19.314Z,348
2018-08-30T07:44:20.864Z,382
2018-08-30T07:45:22.090Z,433
2018-08-30T07:46:23.498Z,483
2018-08-30T07:47:24.888Z,506
2018-08-30T07:48:26.254Z,506
2018-08-30T07:49:27.660Z,483
2018-08-30T07:50:29.059Z,478
2018-08-30T07:51:30.413Z,483
2018-08-30T07:52:31.816Z,461
2018-08-30T07:53:33.229Z,416
2018-08-30T07:54:34.719Z,393
2018-08-30T07:55:35.960Z,393
2018-08-30T07:56:37.349Z,405
2018-08-30T07:57:38.742Z,421
2018-08-30T07:58:40.130Z,438
2018-08-30T07:59:41.544Z,450
2018-08-30T08:00:42.939Z,478
2018-08-30T08:01:44.313Z,523
2018-08-30T08:02:45.709Z,573
2018-08-30T08:03:47.147Z,613
2018-08-30T08:04:48.582Z,658
2018-08-30T08:05:49.986Z,697
2018-08-30T08:06:51.332Z,742
2018-08-30T08:07:52.715Z,810
2018-08-30T08:08:54.091Z,888
2018-08-30T08:09:55.463Z,967
2018-08-30T08:10:56.844Z,1040
2018-08-30T08:11:58.262Z,1091
2018-08-30T08:12:59.597Z,1108
2018-08-30T08:14:00.968Z,1085
2018-08-30T08:15:02.360Z,1186
2018-08-30T08:16:03.733Z,1051
2018-08-30T08:17:05.108Z,1006
2018-08-30T08:18:06.480Z,1001
2018-08-30T08:19:07.933Z,1018
2018-08-30T08:20:09.187Z,1040
2018-08-30T08:21:10.560Z,1080
2018-08-30T08:22:11.954Z,1119
2018-08-30T08:23:13.325Z,1164
2018-08-30T08:24:14.690Z,1288
2018-08-30T08:25:16.119Z,1681
2018-08-30T08:26:17.449Z,2272
2018-08-30T08:27:18.819Z,2548
2018-08-30T08:28:20.200Z,1946
2018-08-30T08:29:21.584Z,2193
2018-08-30T08:30:22.964Z,2435
2018-08-30T08:31:24.384Z,1254
2018-08-30T08:32:25.679Z,1260
2018-08-30T08:33:27.059Z,1434
2018-08-30T08:34:28.440Z,1389
2018-08-30T08:35:29.815Z,1524
2018-08-30T08:36:31.201Z,1563
2018-08-30T08:37:32.607Z,1811
2018-08-30T08:38:33.996Z,2733
2018-08-30T08:39:35.369Z,1580
2018-08-30T08:40:36.744Z,1350
2018-08-30T08:41:38.138Z,1378
2018-08-30T08:42:39.530Z,1372
2018-08-30T08:43:40.898Z,1451
2018-08-30T08:44:42.275Z,1918
2018-08-30T08:45:43.654Z,1771
2018-08-30T08:46:45.023Z,1417
2018-08-30T08:47:46.484Z,1395
2018-08-30T08:48:47.735Z,1389
2018-08-30T08:49:49.119Z,1411
2018-08-30T08:50:50.493Z,1445
2018-08-30T08:51:51.893Z,1456
2018-08-30T08:52:53.266Z,1541
2018-08-30T08:53:54.669Z,1586
2018-08-30T08:54:55.978Z,1631
2018-08-30T08:55:57.368Z,1434
2018-08-30T08:56:58.739Z,1445
2018-08-30T08:58:00.115Z,1434
2018-08-30T08:59:01.693Z,1485
2018-08-30T09:00:02.864Z,2638
2018-08-30T09:01:04.239Z,1608
2018-08-30T09:02:05.784Z,2491
2018-08-30T09:03:07.160Z,2233
2018-08-30T09:04:08.539Z,1276
2018-08-30T09:05:09.911Z,1687
2018-08-30T09:06:11.285Z,1845
2018-08-30T09:07:12.709Z,1428
2018-08-30T09:08:14.041Z,2480
2018-08-30T09:09:15.424Z,2250
2018-08-30T09:10:16.831Z,1698
2018-08-30T09:11:18.264Z,1282
2018-08-30T09:12:19.636Z,1350
2018-08-30T09:13:21.013Z,1321
2018-08-30T09:14:22.453Z,1170
2018-08-30T09:15:23.772Z,1006
2018-08-30T09:16:25.149Z,905
2018-08-30T09:17:26.523Z,826
2018-08-30T09:18:27.945Z,759
2018-08-30T09:19:29.251Z,708
2018-08-30T09:20:30.636Z,658
2018-08-30T09:21:32.083Z,618
2018-08-30T09:22:33.490Z,590
2018-08-30T09:23:34.895Z,556
2018-08-30T09:24:36.277Z,534
2018-08-30T09:25:37.653Z,523
2018-08-30T09:26:39.076Z,528
2018-08-30T09:27:40.411Z,540
2018-08-30T09:28:41.786Z,573
2018-08-30T09:29:43.221Z,596
2018-08-30T09:30:44.592Z,601
2018-08-30T09:31:45.986Z,585
2018-08-30T09:32:47.368Z,562
2018-08-30T09:33:48.796Z,551
2018-08-30T09:34:50.255Z,573
2018-08-30T09:35:51.625Z,607
2018-08-30T09:36:53.012Z,630
2018-08-30T09:37:54.417Z,652
2018-08-30T09:38:55.785Z,646
2018-08-30T09:39:57.175Z,618
2018-08-30T09:40:58.545Z,585
2018-08-30T09:41:59.919Z,556
2018-08-30T09:43:01.300Z,511
2018-08-30T09:44:03.402Z,466
2018-08-30T09:45:04.800Z,444
2018-08-30T09:46:06.193Z,421
2018-08-30T09:47:07.564Z,410
2018-08-30T09:48:08.934Z,388
2018-08-30T09:49:10.314Z,371
2018-08-30T09:50:11.674Z,376
2018-08-30T09:51:13.049Z,393
2018-08-30T09:52:14.421Z,421
2018-08-30T09:53:15.805Z,433
2018-08-30T09:54:17.848Z,444
2018-08-30T09:55:19.214Z,455
2018-08-30T09:56:20.594Z,466
2018-08-30T09:57:22.126Z,478
2018-08-30T09:58:23.296Z,489
2018-08-30T09:59:24.660Z,472
2018-08-30T10:00:26.034Z,461
2018-08-30T10:01:27.408Z,450
2018-08-30T10:02:28.778Z,450
2018-08-30T10:03:30.145Z,438
2018-08-30T10:04:31.560Z,405
2018-08-30T10:05:32.904Z,365
2018-08-30T10:06:34.325Z,343
2018-08-30T10:07:35.695Z,343
2018-08-30T10:08:37.068Z,343
2018-08-30T10:09:38.441Z,371
2018-08-30T10:10:39.814Z,405
2018-08-30T10:11:41.189Z,427
2018-08-30T10:12:42.578Z,438
2018-08-30T10:13:43.948Z,466
2018-08-30T10:14:45.321Z,500
2018-08-30T10:15:46.761Z,523
2018-08-30T10:16:48.080Z,540
2018-08-30T10:17:49.440Z,556
2018-08-30T10:18:50.818Z,596
2018-08-30T10:19:52.199Z,618
2018-08-30T10:20:53.576Z,630
2018-08-30T10:21:54.939Z,641
2018-08-30T10:22:56.319Z,669
2018-08-30T10:23:57.682Z,708
2018-08-30T10:24:59.053Z,770
2018-08-30T10:26:00.425Z,855
2018-08-30T10:27:01.797Z,961
2018-08-30T10:28:03.167Z,1057
2018-08-30T10:29:04.706Z,1096
2018-08-30T10:30:06.086Z,1096
2018-08-30T10:31:07.452Z,1085
2018-08-30T10:32:08.825Z,1085
2018-08-30T10:33:10.204Z,1091
2018-08-30T10:34:11.580Z,1102
2018-08-30T10:35:12.945Z,1113
2018-08-30T10:36:14.327Z,1141
2018-08-30T10:37:15.697Z,1181
2018-08-30T10:38:17.084Z,1237
2018-08-30T10:39:18.489Z,1305
2018-08-30T10:40:19.874Z,1355
2018-08-30T10:41:21.317Z,1383
2018-08-30T10:42:22.696Z,1411
2018-08-30T10:43:24.065Z,1479
2018-08-30T10:44:25.456Z,1608
2018-08-30T10:45:26.830Z,1665
2018-08-30T10:46:28.214Z,1822
2018-08-30T10:47:29.591Z,1968
2018-08-30T10:48:30.974Z,1951
2018-08-30T10:49:32.449Z,2390
2018-08-30T10:50:33.715Z,2216
2018-08-30T10:51:35.110Z,2446
2018-08-30T10:52:36.479Z,2401
2018-08-30T10:53:37.866Z,2216
2018-08-30T10:54:39.250Z,1732
2018-08-30T10:55:40.635Z,1878
2018-08-30T10:56:42.022Z,2221
2018-08-30T10:57:43.402Z,3251
2018-08-30T10:58:44.785Z,3240
2018-08-30T10:59:46.206Z,2497
2018-08-30T11:00:47.597Z,3183
2018-08-30T11:01:49.668Z,3245
2018-08-30T11:02:51.066Z,3470
2018-08-30T11:03:52.513Z,3144
2018-08-30T11:04:53.866Z,2570
2018-08-30T11:05:55.256Z,1518
2018-08-30T11:06:56.657Z,1395
2018-08-30T11:07:58.049Z,1406
2018-08-30T11:08:59.427Z,1479
2018-08-30T11:10:00.842Z,1614
2018-08-30T11:11:02.842Z,1378
2018-08-30T11:12:04.240Z,1192
2018-08-30T11:13:05.695Z,1001
2018-08-30T11:14:06.957Z,939
2018-08-30T11:15:08.355Z,933
2018-08-30T11:16:09.740Z,928
2018-08-30T11:17:11.115Z,866
2018-08-30T11:18:12.492Z,748
2018-08-30T11:19:13.909Z,708
2018-08-30T11:20:15.255Z,736
2018-08-30T11:21:16.622Z,793
2018-08-30T11:22:18.011Z,838
2018-08-30T11:23:19.408Z,877
2018-08-30T11:24:20.787Z,928
2018-08-30T11:25:22.170Z,1018
2018-08-30T11:26:23.562Z,1074
2018-08-30T11:27:24.951Z,1141
2018-08-30T11:28:26.319Z,1147
2018-08-30T11:29:27.721Z,1040
2018-08-30T11:30:29.086Z,1012
2018-08-30T11:31:30.482Z,1051
2018-08-30T11:32:31.860Z,1141
2018-08-30T11:33:33.247Z,1507
2018-08-30T11:34:34.691Z,1417
2018-08-30T11:35:36.080Z,1243
2018-08-30T11:36:37.453Z,1181
2018-08-30T11:37:38.840Z,1130
2018-08-30T11:38:40.222Z,1164
2018-08-30T11:39:41.657Z,1029
2018-08-30T11:40:43.055Z,967
2018-08-30T11:41:44.482Z,939
2018-08-30T11:42:45.858Z,939
2018-08-30T11:43:47.233Z,984
2018-08-30T11:44:48.578Z,1057
2018-08-30T11:45:49.958Z,1057
2018-08-30T11:46:51.376Z,1119
2018-08-30T11:47:52.751Z,1333
2018-08-30T11:48:54.138Z,1260
2018-08-30T11:49:55.502Z,1198
2018-08-30T11:50:56.877Z,1271
2018-08-30T11:51:58.263Z,1141
2018-08-30T11:52:59.640Z,1051
2018-08-30T11:54:01.010Z,933
2018-08-30T11:55:02.437Z,843
2018-08-30T11:56:03.803Z,810
2018-08-30T11:57:05.187Z,815
2018-08-30T11:58:06.559Z,804
2018-08-30T11:59:07.938Z,855
2018-08-30T12:00:09.310Z,1012
2018-08-30T12:01:10.685Z,2733
2018-08-30T12:02:12.071Z,2008
2018-08-30T12:03:13.455Z,2508
2018-08-30T12:04:14.841Z,3009
2018-08-30T12:05:16.235Z,2615
2018-08-30T12:06:17.624Z,1383
2018-08-30T12:07:19.003Z,1777
2018-08-30T12:08:20.435Z,2790
2018-08-30T12:09:21.722Z,2638
2018-08-30T12:10:23.157Z,2936
2018-08-30T12:11:24.554Z,2660
2018-08-30T12:12:25.881Z,1535
2018-08-30T12:13:27.270Z,1338
2018-08-30T12:14:28.648Z,1721
2018-08-30T12:15:30.049Z,1406
2018-08-30T12:16:31.428Z,1417
2018-08-30T12:17:32.910Z,1411
2018-08-30T12:18:34.293Z,1479
2018-08-30T12:19:35.671Z,1906
2018-08-30T12:20:37.137Z,1738
2018-08-30T12:21:38.441Z,1946
2018-08-30T12:22:39.831Z,1783
2018-08-30T12:23:41.216Z,1417
2018-08-30T12:24:42.626Z,1220
2018-08-30T12:25:44.021Z,1119
2018-08-30T12:26:45.596Z,1074
2018-08-30T12:27:47.014Z,1080
2018-08-30T12:28:48.493Z,1119
2018-08-30T12:29:49.768Z,1164
2018-08-30T12:30:51.146Z,1220
2018-08-30T12:31:52.550Z,1209
2018-08-30T12:32:54.115Z,1231
2018-08-30T12:33:55.478Z,1282
2018-08-30T12:34:56.769Z,1299
2018-08-30T12:35:58.266Z,1293
2018-08-30T12:36:59.482Z,1631
2018-08-30T12:38:00.854Z,1321
2018-08-30T12:39:02.268Z,1260
2018-08-30T12:40:03.751Z,1282
2018-08-30T12:41:05.126Z,1293
2018-08-30T12:42:06.522Z,1265
2018-08-30T12:43:07.867Z,1254
2018-08-30T12:44:09.211Z,1248
2018-08-30T12:45:10.623Z,1231
2018-08-30T12:46:11.979Z,1209
2018-08-30T12:47:13.373Z,1181
2018-08-30T12:48:14.772Z,1248
2018-08-30T12:49:16.139Z,1102
2018-08-30T12:50:17.627Z,1074
2018-08-30T12:51:19.047Z,1063
2018-08-30T12:52:20.339Z,1068
2018-08-30T12:53:21.796Z,1068
2018-08-30T12:54:23.119Z,1051
2018-08-30T12:55:24.467Z,1035
2018-08-30T12:56:25.749Z,1046
2018-08-30T12:57:27.189Z,1063
2018-08-30T12:58:28.632Z,1091
2018-08-30T12:59:29.970Z,1147
2018-08-30T13:00:31.282Z,1226
2018-08-30T13:01:32.711Z,1389
2018-08-30T13:02:34.206Z,1355
2018-08-30T13:03:35.549Z,1440
2018-08-30T13:04:37.029Z,1383
2018-08-30T13:05:38.370Z,1327
2018-08-30T13:06:39.579Z,1288
2018-08-30T13:07:41.019Z,1203
2018-08-30T13:08:42.643Z,1186
2018-08-30T13:09:43.917Z,1175
2018-08-30T13:10:45.370Z,1164
2018-08-30T13:12:13.770Z,1248
2018-08-30T13:13:15.041Z,1687
2018-08-30T13:14:16.724Z,1305
2018-08-30T13:15:18.190Z,1288
2018-08-30T13:16:19.365Z,1186
2018-08-30T13:17:20.789Z,1091
2018-08-30T13:18:22.211Z,1029
2018-08-30T13:19:23.634Z,1001
2018-08-30T13:20:24.896Z,967
2018-08-30T13:21:26.291Z,939
2018-08-30T13:22:27.655Z,911
2018-08-30T13:23:29.050Z,883
2018-08-30T13:24:30.568Z,855
2018-08-30T13:25:31.786Z,815
2018-08-30T13:26:33.184Z,793
2018-08-30T13:27:34.563Z,776
2018-08-30T13:28:36.062Z,770
2018-08-30T13:29:37.345Z,753
2018-08-30T13:30:38.852Z,736
2018-08-30T13:31:40.312Z,720
2018-08-30T13:32:42.263Z,697
2018-08-30T13:34:00.502Z,691
2018-08-30T13:35:02.387Z,658
2018-08-30T13:36:03.515Z,630
2018-08-30T13:37:04.838Z,601
2018-08-30T13:38:06.338Z,585
2018-08-30T13:39:07.446Z,556
2018-08-30T13:40:09.092Z,534
2018-08-30T13:41:10.345Z,517
2018-08-30T13:42:11.765Z,495
2018-08-30T13:43:13.012Z,489
2018-08-30T13:44:14.497Z,483
2018-08-30T13:45:15.609Z,478
2018-08-30T13:46:16.945Z,466
2018-08-30T13:47:18.385Z,461
2018-08-30T13:48:19.759Z,466
2018-08-30T13:49:21.107Z,466
2018-08-30T13:50:22.475Z,478
2018-08-30T13:51:23.909Z,489
2018-08-30T13:52:25.468Z,506
2018-08-30T13:54:06.250Z,528
2018-08-30T13:55:07.485Z,540
2018-08-30T13:56:08.781Z,551
2018-08-30T13:57:10.267Z,551
2018-08-30T13:58:11.435Z,545
2018-08-30T13:59:12.979Z,545
2018-08-30T14:00:14.321Z,545
2018-08-30T14:01:15.711Z,562
2018-08-30T14:02:16.807Z,585
2018-08-30T14:03:18.294Z,624
2018-08-30T14:04:19.524Z,658
2018-08-30T14:05:20.967Z,686
2018-08-30T14:06:22.323Z,697
2018-08-30T14:07:23.490Z,708
2018-08-30T14:08:24.878Z,731
2018-08-30T14:09:26.241Z,765
2018-08-30T14:10:27.644Z,798
2018-08-30T14:11:28.998Z,843
2018-08-30T14:12:30.303Z,871
2018-08-30T14:13:31.663Z,883
2018-08-30T14:14:33.063Z,905
2018-08-30T14:15:49.486Z,933
2018-08-30T14:16:50.850Z,956
2018-08-30T14:17:52.286Z,950
2018-08-30T14:18:54.975Z,984
2018-08-30T14:19:56.237Z,1018
2018-08-30T14:20:57.568Z,1029
2018-08-30T14:21:59.001Z,922
2018-08-30T14:23:00.319Z,871
2018-08-30T14:24:01.695Z,849
2018-08-30T14:25:03.084Z,821
2018-08-30T14:26:04.453Z,810
2018-08-30T14:27:05.925Z,810